createdAt,value
2023-05-14T00:04:22.483Z,16.51
2023-05-14T00:49:29.551Z,15.84
2023-05-14T01:08:46.660Z,15.73
2023-05-14T01:11:04.676Z,15.64
2023-05-14T01:13:34.424Z,15.59
2023-05-14T01:16:14.420Z,15.54
2023-05-14T01:19:08.410Z,15.48
2023-05-14T01:21:57.544Z,15.40
2023-05-14T01:24:33.321Z,15.37
2023-05-14T01:27:13.972Z,15.31
2023-05-14T01:29:21.765Z,15.16
2023-05-14T01:31:31.660Z,15.12
2023-05-14T01:33:32.175Z,15.06
2023-05-14T01:35:50.493Z,15.02
2023-05-14T01:38:10.433Z,14.96
2023-05-14T01:40:23.779Z,15.00
2023-05-14T01:42:36.611Z,15.04
2023-05-14T01:44:54.927Z,15.04
2023-05-14T01:47:38.244Z,15.04
2023-05-14T01:49:58.218Z,15.03
2023-05-14T01:52:48.472Z,15.00
2023-05-14T01:55:05.927Z,14.96
2023-05-14T01:57:00.954Z,14.93
2023-05-14T01:58:56.967Z,14.91
2023-05-14T02:00:51.997Z,14.88
2023-05-14T02:02:47.457Z,14.92
2023-05-14T02:04:42.508Z,14.90
2023-05-14T02:06:37.857Z,14.90
2023-05-14T02:08:32.948Z,14.91
2023-05-14T02:10:30.945Z,14.92
2023-05-14T02:12:26.404Z,14.93
2023-05-14T02:14:21.776Z,14.91
2023-05-14T02:16:16.870Z,14.90
2023-05-14T02:18:12.717Z,14.90
2023-05-14T02:20:10.371Z,14.86
2023-05-14T02:22:06.129Z,14.79
2023-05-14T02:24:01.144Z,14.77
2023-05-14T02:25:59.127Z,14.75
2023-05-14T02:27:54.270Z,14.72
2023-05-14T02:29:50.265Z,14.66
2023-05-14T02:31:45.325Z,14.60
2023-05-14T02:33:38.172Z,14.58
2023-05-14T02:35:33.222Z,14.60
2023-05-14T02:37:28.681Z,14.61
2023-05-14T02:39:23.688Z,14.61
2023-05-14T02:41:21.661Z,14.64
2023-05-14T02:43:16.668Z,14.65
2023-05-14T02:45:12.911Z,14.59
2023-05-14T02:47:08.970Z,14.58
2023-05-14T02:49:04.404Z,14.54
2023-05-14T02:50:59.491Z,14.52
2023-05-14T02:52:54.830Z,14.53
2023-05-14T02:54:49.810Z,14.55
2023-05-14T02:56:47.775Z,14.49
2023-05-14T02:58:42.789Z,14.46
2023-05-14T03:00:38.231Z,14.43
2023-05-14T03:02:33.710Z,14.42
2023-05-14T03:04:29.758Z,14.45
2023-05-14T03:06:24.788Z,14.48
2023-05-14T03:08:20.119Z,14.46
2023-05-14T03:10:15.126Z,14.49
2023-05-14T03:12:14.454Z,14.49
2023-05-14T03:14:09.777Z,14.43
2023-05-14T03:16:05.470Z,14.37
2023-05-14T03:18:00.850Z,14.38
2023-05-14T03:19:56.528Z,14.38
2023-05-14T03:21:52.315Z,14.39
2023-05-14T03:23:47.722Z,14.38
2023-05-14T03:25:42.733Z,14.37
2023-05-14T03:27:40.769Z,14.36
2023-05-14T03:29:35.959Z,14.35
2023-05-14T03:31:31.679Z,14.33
2023-05-14T03:33:26.709Z,14.38
2023-05-14T03:35:22.200Z,14.41
2023-05-14T03:37:17.174Z,14.45
2023-05-14T03:39:15.565Z,14.46
2023-05-14T03:41:10.687Z,14.48
2023-05-14T03:43:08.842Z,14.52
2023-05-14T03:45:03.899Z,14.54
2023-05-14T03:46:59.213Z,14.48
2023-05-14T03:48:54.266Z,14.42
2023-05-14T03:50:49.700Z,14.39
2023-05-14T03:52:44.755Z,14.37
2023-05-14T03:54:41.376Z,14.33
2023-05-14T03:56:36.475Z,14.35
2023-05-14T03:58:34.465Z,14.36
2023-05-14T04:00:29.503Z,14.36
2023-05-14T04:02:25.062Z,14.37
2023-05-14T04:04:20.332Z,14.38
2023-05-14T04:06:16.307Z,14.37
2023-05-14T04:08:11.414Z,14.36
2023-05-14T04:10:07.253Z,14.31
2023-05-14T04:12:02.304Z,14.30
2023-05-14T04:14:02.271Z,14.31
2023-05-14T04:15:57.316Z,14.26
2023-05-14T04:17:52.737Z,14.16
2023-05-14T04:19:47.913Z,14.08
2023-05-14T04:21:43.274Z,14.04
2023-05-14T04:23:38.219Z,14.06
2023-05-14T04:25:33.533Z,14.03
2023-05-14T04:27:28.560Z,14.01
2023-05-14T04:29:26.518Z,13.99
2023-05-14T04:31:21.589Z,14.05
2023-05-14T04:33:17.027Z,14.08
2023-05-14T04:35:13.024Z,14.10
2023-05-14T04:37:09.100Z,14.07
2023-05-14T04:39:04.159Z,14.01
2023-05-14T04:40:59.459Z,13.96
2023-05-14T04:46:14.687Z,13.90
2023-05-14T04:48:20.503Z,13.97
2023-05-14T04:51:12.600Z,13.97
2023-05-14T04:53:27.365Z,13.95
2023-05-14T04:55:22.744Z,13.93
2023-05-14T04:57:17.867Z,13.90
2023-05-14T04:59:19.638Z,13.93
2023-05-14T05:01:25.392Z,13.91
2023-05-14T05:03:23.021Z,13.91
2023-05-14T05:05:18.956Z,13.93
2023-05-14T05:07:14.717Z,13.98
2023-05-14T05:09:10.020Z,13.99
2023-05-14T05:11:05.349Z,13.98
2023-05-14T05:13:00.414Z,13.95
2023-05-14T05:14:55.835Z,13.98
2023-05-14T05:16:53.867Z,14.02
2023-05-14T05:18:49.343Z,14.04
2023-05-14T05:20:44.335Z,14.05
2023-05-14T05:22:39.959Z,14.07
2023-05-14T05:24:35.278Z,14.12
2023-05-14T05:26:31.830Z,14.10
2023-05-14T05:28:27.116Z,14.12
2023-05-14T05:30:24.662Z,14.19
2023-05-14T05:32:25.146Z,14.24
2023-05-14T05:34:20.914Z,14.28
2023-05-14T05:36:16.062Z,14.29
2023-05-14T05:38:11.446Z,14.31
2023-05-14T05:40:07.198Z,14.34
2023-05-14T05:42:02.798Z,14.38
2023-05-14T05:44:00.715Z,14.36
2023-05-14T05:45:56.034Z,14.39
2023-05-14T05:47:53.646Z,14.40
2023-05-14T05:49:49.176Z,14.40
2023-05-14T05:51:44.111Z,14.43
2023-05-14T05:53:39.558Z,14.49
2023-05-14T05:55:34.532Z,14.52
2023-05-14T05:57:29.987Z,14.57
2023-05-14T05:59:27.003Z,14.61
2023-05-14T06:01:22.655Z,14.67
2023-05-14T06:03:23.467Z,14.71
2023-05-14T06:05:21.657Z,14.72
2023-05-14T06:07:16.967Z,14.76
2023-05-14T06:09:13.328Z,14.80
2023-05-14T06:11:08.494Z,14.80
2023-05-14T06:13:03.830Z,14.83
2023-05-14T06:14:59.026Z,14.84
2023-05-14T06:16:54.466Z,14.90
2023-05-14T06:18:52.971Z,14.93
2023-05-14T06:20:48.437Z,14.92
2023-05-14T06:22:43.456Z,14.95
2023-05-14T06:24:38.770Z,14.98
2023-05-14T06:26:33.758Z,15.01
2023-05-14T06:28:29.105Z,15.03
2023-05-14T06:30:24.565Z,15.06
2023-05-14T06:32:20.150Z,15.07
2023-05-14T06:34:19.061Z,15.14
2023-05-14T06:36:19.353Z,15.19
2023-05-14T06:38:19.496Z,15.21
2023-05-14T06:40:18.809Z,15.26
2023-05-14T06:42:14.198Z,15.28
2023-05-14T06:44:09.571Z,15.26
2023-05-14T06:46:04.638Z,15.30
2023-05-14T06:50:46.889Z,15.37
2023-05-14T06:52:43.710Z,15.36
2023-05-14T06:54:39.510Z,15.40
2023-05-14T06:56:34.553Z,15.43
2023-05-14T06:58:29.832Z,15.51
2023-05-14T07:00:26.106Z,15.54
2023-05-14T07:02:22.271Z,15.62
2023-05-14T07:04:17.706Z,15.70
2023-05-14T07:06:17.622Z,15.74
2023-05-14T07:08:12.616Z,15.79
2023-05-14T07:10:09.922Z,15.75
2023-05-14T07:12:05.697Z,15.83
2023-05-14T07:14:03.224Z,15.86
2023-05-14T07:15:58.500Z,15.85
2023-05-14T07:17:54.014Z,15.92
2023-05-14T07:19:49.058Z,16.01
2023-05-14T07:21:47.074Z,16.01
2023-05-14T07:23:42.120Z,16.06
2023-05-14T07:25:37.479Z,16.04
2023-05-14T07:27:32.594Z,16.11
2023-05-14T07:29:30.225Z,16.18
2023-05-14T07:31:25.636Z,16.24
2023-05-14T07:33:21.448Z,16.17
2023-05-14T07:35:16.920Z,16.26
2023-05-14T07:37:16.511Z,16.29
2023-05-14T07:39:13.370Z,16.32
2023-05-14T07:41:08.735Z,16.41
2023-05-14T07:43:04.114Z,16.38
2023-05-14T07:44:59.491Z,16.46
2023-05-14T07:46:54.633Z,16.54
2023-05-14T07:48:52.826Z,16.63
2023-05-14T07:50:48.215Z,16.66
2023-05-14T07:52:46.168Z,16.76
2023-05-14T07:54:41.265Z,16.82
2023-05-14T07:56:36.672Z,16.88
2023-05-14T07:58:32.025Z,16.84
2023-05-14T08:00:27.544Z,16.94
2023-05-14T08:02:22.634Z,17.04
2023-05-14T08:04:18.330Z,17.10
2023-05-14T08:06:13.601Z,17.16
2023-05-14T08:08:12.599Z,17.27
2023-05-14T08:10:09.058Z,17.31
2023-05-14T08:12:04.472Z,17.32
2023-05-14T08:13:59.679Z,17.36
2023-05-14T08:15:55.964Z,17.47
2023-05-14T08:17:51.156Z,17.58
2023-05-14T08:19:46.976Z,17.60
2023-05-14T08:21:42.016Z,17.61
2023-05-14T08:23:39.896Z,17.56
2023-05-14T08:25:35.203Z,17.66
2023-05-14T08:27:30.948Z,17.79
2023-05-14T08:29:26.066Z,17.76
2023-05-14T08:31:21.421Z,17.90
2023-05-14T08:33:16.524Z,18.05
2023-05-14T08:35:12.573Z,17.99
2023-05-14T08:37:08.204Z,18.04
2023-05-14T08:39:07.820Z,18.10
2023-05-14T08:41:03.466Z,18.12
2023-05-14T08:42:59.942Z,18.07
2023-05-14T08:44:59.866Z,18.24
2023-05-14T08:46:56.659Z,18.26
2023-05-14T08:48:57.905Z,18.20
2023-05-14T08:50:53.541Z,18.33
2023-05-14T08:52:49.140Z,18.33
2023-05-14T08:54:49.613Z,18.45
2023-05-14T08:56:46.581Z,18.48
2023-05-14T08:58:41.908Z,18.62
2023-05-14T09:00:37.481Z,18.71
2023-05-14T09:02:34.218Z,18.80
2023-05-14T09:04:30.615Z,18.82
2023-05-14T09:06:27.356Z,18.99
2023-05-14T09:08:22.822Z,19.02
2023-05-14T09:10:22.338Z,19.25
2023-05-14T09:12:17.737Z,19.28
2023-05-14T09:14:13.150Z,19.28
2023-05-14T09:16:09.087Z,19.38
2023-05-14T09:18:04.652Z,19.60
2023-05-14T09:19:59.900Z,19.71
2023-05-14T09:21:55.277Z,19.67
2023-05-14T09:23:50.257Z,19.70
2023-05-14T09:25:50.632Z,19.81
2023-05-14T09:27:50.294Z,19.92
2023-05-14T09:29:45.745Z,19.93
2023-05-14T09:31:40.879Z,20.13
2023-05-14T09:33:36.983Z,20.20
2023-05-14T09:35:32.682Z,20.25
2023-05-14T09:37:28.416Z,20.24
2023-05-14T09:39:23.940Z,20.26
2023-05-14T09:41:23.205Z,20.32
2023-05-14T09:43:18.812Z,20.30
2023-05-14T09:45:14.837Z,20.35
2023-05-14T09:47:10.254Z,20.27
2023-05-14T09:49:05.696Z,20.34
2023-05-14T09:51:02.711Z,20.39
2023-05-14T09:52:58.851Z,20.36
2023-05-14T09:54:55.039Z,20.46
2023-05-14T09:56:55.480Z,20.52
2023-05-14T09:58:50.923Z,20.40
2023-05-14T10:00:48.664Z,20.43
2023-05-14T10:02:45.648Z,20.54
2023-05-14T10:04:44.053Z,20.38
2023-05-14T10:06:42.416Z,20.29
2023-05-14T10:08:39.307Z,20.46
2023-05-14T10:10:37.000Z,20.65
2023-05-14T10:12:37.151Z,20.65
2023-05-14T10:14:38.144Z,20.52
2023-05-14T10:16:37.988Z,20.36
2023-05-14T10:18:38.142Z,20.42
2023-05-14T10:20:34.221Z,20.24
2023-05-14T10:22:30.626Z,20.31
2023-05-14T10:24:27.541Z,20.33
2023-05-14T10:26:24.177Z,20.35
2023-05-14T10:28:22.249Z,20.44
2023-05-14T10:30:17.669Z,20.33
2023-05-14T10:32:13.505Z,20.33
2023-05-14T10:34:40.714Z,20.37
2023-05-14T10:36:36.692Z,20.36
2023-05-14T10:38:34.019Z,20.27
2023-05-14T10:40:30.868Z,20.35
2023-05-14T10:42:27.538Z,20.33
2023-05-14T10:44:28.723Z,20.21
2023-05-14T10:46:23.833Z,20.30
2023-05-14T10:48:19.790Z,20.25
2023-05-14T10:50:17.731Z,20.24
2023-05-14T10:52:15.033Z,20.19
2023-05-14T10:54:11.429Z,20.15
2023-05-14T10:56:08.593Z,20.08
2023-05-14T10:58:07.826Z,20.13
2023-05-14T11:00:07.726Z,20.25
2023-05-14T11:02:02.876Z,20.25
2023-05-14T11:04:01.466Z,20.24
2023-05-14T11:06:21.133Z,20.11
2023-05-14T11:08:39.174Z,20.14
2023-05-14T11:10:49.857Z,20.08
2023-05-14T11:12:53.031Z,20.04
2023-05-14T11:14:50.828Z,20.01
2023-05-14T11:19:52.886Z,20.00
2023-05-14T11:21:50.307Z,19.96
2023-05-14T11:23:45.298Z,20.05
2023-05-14T11:25:40.818Z,20.07
2023-05-14T11:27:37.778Z,20.12
2023-05-14T11:29:33.102Z,20.22
2023-05-14T11:31:28.799Z,20.26
2023-05-14T11:33:26.778Z,20.39
2023-05-14T11:35:27.721Z,20.29
2023-05-14T11:37:25.154Z,20.25
2023-05-14T11:41:42.844Z,20.38
2023-05-14T11:43:39.362Z,20.47
2023-05-14T11:45:36.538Z,20.44
2023-05-14T11:47:32.693Z,20.51
2023-05-14T11:49:32.007Z,20.55
2023-05-14T11:51:27.315Z,20.62
2023-05-14T11:53:29.583Z,20.57
2023-05-14T11:55:29.110Z,20.67
2023-05-14T11:57:50.042Z,20.62
2023-05-14T12:00:00.504Z,20.58
2023-05-14T12:01:59.296Z,20.70
2023-05-14T12:03:55.073Z,20.55
2023-05-14T12:06:02.347Z,20.55
2023-05-14T12:08:09.759Z,20.50
2023-05-14T12:10:20.721Z,20.43
2023-05-14T12:12:24.725Z,20.40
2023-05-14T12:14:22.581Z,20.42
2023-05-14T12:16:18.924Z,20.54
2023-05-14T12:18:23.893Z,20.52
2023-05-14T12:20:20.715Z,20.62
2023-05-14T12:24:41.361Z,20.93
2023-05-14T12:26:40.934Z,21.06
2023-05-14T12:28:38.788Z,21.08
2023-05-14T12:30:46.114Z,21.20
2023-05-14T12:32:50.388Z,21.31
2023-05-14T12:34:46.704Z,21.40
2023-05-14T12:36:43.904Z,21.48
2023-05-14T12:38:44.362Z,21.51
2023-05-14T12:40:40.515Z,21.61
2023-05-14T12:42:39.886Z,21.85
2023-05-14T12:44:39.914Z,22.05
2023-05-14T12:46:37.012Z,22.26
2023-05-14T12:48:32.207Z,22.52
2023-05-14T12:50:27.744Z,22.70
2023-05-14T12:52:36.714Z,22.63
2023-05-14T12:54:36.309Z,22.53
2023-05-14T12:56:32.199Z,22.42
2023-05-14T12:58:27.584Z,22.33
2023-05-14T13:00:23.308Z,22.28
2023-05-14T13:02:19.094Z,22.12
2023-05-14T13:04:33.579Z,21.83
2023-05-14T13:06:32.382Z,21.86
2023-05-14T13:08:30.249Z,21.77
2023-05-14T13:10:31.562Z,21.68
2023-05-14T13:12:27.429Z,21.75
2023-05-14T13:14:23.221Z,21.85
2023-05-14T13:16:18.443Z,21.91
2023-05-14T13:18:14.115Z,21.93
2023-05-14T13:20:10.843Z,22.02
2023-05-14T13:22:07.116Z,22.12
2023-05-14T13:24:02.992Z,22.22
2023-05-14T13:26:03.871Z,22.27
2023-05-14T13:28:04.598Z,22.20
2023-05-14T13:30:02.670Z,22.12
2023-05-14T13:32:02.264Z,21.87
2023-05-14T13:34:06.534Z,21.72
2023-05-14T13:36:01.846Z,21.62
2023-05-14T13:37:57.371Z,21.62
2023-05-14T13:39:52.476Z,21.61
2023-05-14T13:41:50.957Z,21.62
2023-05-14T13:43:46.113Z,21.60
2023-05-14T13:45:44.703Z,21.42
2023-05-14T13:47:44.902Z,21.23
2023-05-14T13:49:40.991Z,21.17
2023-05-14T13:52:05.737Z,21.23
2023-05-14T13:55:22.433Z,21.41
2023-05-14T13:57:59.974Z,21.35
2023-05-14T14:00:19.870Z,21.26
2023-05-14T14:02:41.762Z,21.31
2023-05-14T14:05:07.076Z,21.24
2023-05-14T14:07:10.389Z,21.13
2023-05-14T14:09:17.974Z,21.25
2023-05-14T14:11:39.459Z,21.20
2023-05-14T14:13:47.850Z,20.99
2023-05-14T14:15:43.827Z,21.07
2023-05-14T14:17:41.786Z,20.95
2023-05-14T14:19:37.092Z,21.02
2023-05-14T14:21:44.592Z,21.00
2023-05-14T14:23:43.023Z,20.97
2023-05-14T14:25:38.710Z,21.03
2023-05-14T14:27:36.253Z,21.09
2023-05-14T14:29:36.835Z,21.01
2023-05-14T14:31:32.268Z,21.06
2023-05-14T14:33:29.596Z,21.20
2023-05-14T14:35:26.677Z,21.27
2023-05-14T14:37:59.935Z,21.31
2023-05-14T14:40:05.955Z,21.30
2023-05-14T14:42:42.284Z,21.41
2023-05-14T14:45:28.783Z,21.40
2023-05-14T14:51:23.290Z,21.56
2023-05-14T14:53:24.716Z,21.57
2023-05-14T14:55:44.028Z,21.62
2023-05-14T14:59:05.793Z,21.78
2023-05-14T15:01:25.052Z,21.83
2023-05-14T15:03:30.537Z,21.90
2023-05-14T15:05:30.199Z,22.07
2023-05-14T15:07:32.244Z,22.14
2023-05-14T15:09:31.005Z,22.17
2023-05-14T15:11:26.263Z,22.21
2023-05-14T15:13:24.820Z,22.30
2023-05-14T15:15:21.234Z,22.41
2023-05-14T15:17:20.813Z,22.60
2023-05-14T15:19:31.612Z,22.71
2023-05-14T15:21:30.123Z,22.61
2023-05-14T15:23:35.752Z,22.61
2023-05-14T15:28:37.744Z,22.51
2023-05-14T15:31:36.496Z,22.55
2023-05-14T15:37:03.966Z,22.72
2023-05-14T15:39:05.960Z,22.66
2023-05-14T15:41:09.469Z,22.67
2023-05-14T15:43:05.707Z,22.78
2023-05-14T15:45:04.074Z,22.64
2023-05-14T15:47:12.594Z,22.47
2023-05-14T15:49:21.645Z,22.20
2023-05-14T15:51:20.139Z,22.25
2023-05-14T15:53:17.155Z,22.20
2023-05-14T15:55:15.969Z,22.17
2023-05-14T15:57:11.454Z,22.11
2023-05-14T15:59:07.201Z,22.25
2023-05-14T16:01:02.992Z,22.24
2023-05-14T16:02:58.897Z,22.18
2023-05-14T16:04:57.771Z,21.89
2023-05-14T16:06:54.455Z,21.89
2023-05-14T16:08:50.013Z,21.84
2023-05-14T16:10:54.551Z,21.84
2023-05-14T16:12:50.261Z,21.90
2023-05-14T16:15:00.405Z,21.85
2023-05-14T16:16:59.196Z,21.86
2023-05-14T16:18:54.969Z,21.91
2023-05-14T16:20:50.207Z,21.91
2023-05-14T16:22:52.917Z,21.88
2023-05-14T16:24:48.555Z,21.88
2023-05-14T16:26:47.326Z,21.91
2023-05-14T16:28:44.456Z,22.09
2023-05-14T16:30:42.707Z,22.20
2023-05-14T16:32:43.330Z,22.27
2023-05-14T16:34:54.124Z,22.21
2023-05-14T16:37:01.658Z,22.36
2023-05-14T16:39:07.335Z,22.58
2023-05-14T16:41:04.142Z,22.66
2023-05-14T16:43:02.357Z,22.84
2023-05-14T16:45:03.155Z,22.95
2023-05-14T16:47:04.743Z,23.08
2023-05-14T16:49:23.861Z,23.12
2023-05-14T16:51:26.702Z,23.02
2023-05-14T16:53:36.256Z,22.99
2023-05-14T16:55:31.620Z,23.04
2023-05-14T16:57:27.472Z,23.20
2023-05-14T17:02:21.580Z,23.01
2023-05-14T17:04:22.560Z,22.86
2023-05-14T17:06:18.340Z,22.77
2023-05-14T17:08:13.838Z,22.68
2023-05-14T17:10:10.529Z,22.51
2023-05-14T17:12:08.441Z,22.47
2023-05-14T17:14:06.304Z,22.41
2023-05-14T17:16:02.474Z,22.32
2023-05-14T17:18:00.947Z,22.17
2023-05-14T17:19:56.674Z,22.09
2023-05-14T17:21:51.809Z,22.02
2023-05-14T17:23:47.227Z,22.03
2023-05-14T17:25:42.520Z,22.00
2023-05-14T17:27:37.955Z,22.03
2023-05-14T17:29:36.075Z,22.09
2023-05-14T17:31:31.494Z,22.16
2023-05-14T17:33:29.259Z,22.14
2023-05-14T17:35:25.065Z,22.12
2023-05-14T17:37:20.469Z,22.14
2023-05-14T17:39:16.332Z,22.10
2023-05-14T17:41:11.441Z,22.05
2023-05-14T17:43:08.750Z,22.03
2023-05-14T17:45:03.929Z,21.97
2023-05-14T17:47:00.618Z,21.90
2023-05-14T17:48:58.486Z,21.90
2023-05-14T17:50:54.397Z,21.91
2023-05-14T17:52:54.009Z,21.88
2023-05-14T17:54:55.033Z,21.82
2023-05-14T17:56:51.235Z,21.77
2023-05-14T17:58:54.227Z,21.72
2023-05-14T18:04:16.761Z,21.63
2023-05-14T18:06:19.321Z,21.54
2023-05-14T18:08:30.221Z,21.48
2023-05-14T18:10:32.289Z,21.43
2023-05-14T18:12:41.880Z,21.41
2023-05-14T18:14:41.927Z,21.37
2023-05-14T18:17:46.902Z,21.38
2023-05-14T18:20:55.436Z,21.22
2023-05-14T18:22:52.604Z,21.21
2023-05-14T18:24:58.817Z,21.18
2023-05-14T18:27:20.220Z,21.17
2023-05-14T18:29:17.795Z,21.11
2023-05-14T18:31:13.117Z,21.02
2023-05-14T18:33:08.581Z,20.86
2023-05-14T18:35:05.670Z,20.70
2023-05-14T18:37:14.623Z,20.65
2023-05-14T18:39:11.853Z,20.55
2023-05-14T18:41:09.510Z,20.62
2023-05-14T18:43:05.240Z,20.56
2023-05-14T18:45:01.756Z,20.52
2023-05-14T18:46:59.547Z,20.43
2023-05-14T18:49:49.880Z,20.48
2023-05-14T18:52:14.289Z,20.47
2023-05-14T18:54:17.239Z,20.39
2023-05-14T18:56:13.161Z,20.36
2023-05-14T18:58:09.250Z,20.35
2023-05-14T19:00:05.460Z,20.36
2023-05-14T19:02:01.225Z,20.28
2023-05-14T19:04:00.220Z,20.24
2023-05-14T19:05:57.815Z,20.16
2023-05-14T19:07:54.950Z,20.10
2023-05-14T19:09:59.692Z,20.00
2023-05-14T19:12:07.437Z,20.04
2023-05-14T19:14:07.327Z,20.04
2023-05-14T19:16:03.397Z,20.08
2023-05-14T19:17:59.276Z,20.11
2023-05-14T19:19:54.888Z,20.03
2023-05-14T19:22:02.014Z,20.04
2023-05-14T19:26:00.628Z,20.04
2023-05-14T19:28:01.651Z,19.91
2023-05-14T19:30:01.388Z,19.92
2023-05-14T19:32:00.166Z,19.88
2023-05-14T19:33:57.969Z,19.85
2023-05-14T19:36:00.844Z,19.83
2023-05-14T19:38:14.825Z,19.74
2023-05-14T19:43:23.520Z,19.71
2023-05-14T19:45:52.960Z,19.66
2023-05-14T19:47:48.700Z,19.62
2023-05-14T19:49:44.692Z,19.55
2023-05-14T19:51:41.283Z,19.49
2023-05-14T19:53:37.130Z,19.46
2023-05-14T19:55:32.826Z,19.38
2023-05-14T19:57:51.664Z,19.36
2023-05-14T20:02:54.066Z,19.35
2023-05-14T20:04:58.572Z,19.34
2023-05-14T20:07:03.406Z,19.26
2023-05-14T20:09:42.517Z,19.22
2023-05-14T20:15:11.242Z,19.06
2023-05-14T20:17:09.204Z,18.99
2023-05-14T20:19:21.448Z,18.97
2023-05-14T20:21:18.404Z,18.88
2023-05-14T20:23:14.025Z,18.87
2023-05-14T20:25:10.420Z,18.82
2023-05-14T20:27:05.963Z,18.70
2023-05-14T20:29:01.785Z,18.68
2023-05-14T20:30:59.113Z,18.59
2023-05-14T20:32:56.880Z,18.51
2023-05-14T20:35:02.886Z,18.53
2023-05-14T20:36:58.472Z,18.49
2023-05-14T20:38:56.187Z,18.52
2023-05-14T20:40:52.180Z,18.48
2023-05-14T20:42:47.536Z,18.46
2023-05-14T20:44:43.170Z,18.34
2023-05-14T20:46:38.831Z,18.32
2023-05-14T20:48:34.411Z,18.28
2023-05-14T20:50:32.399Z,18.27
2023-05-14T20:52:27.907Z,18.19
2023-05-14T20:54:22.903Z,18.06
2023-05-14T20:56:18.391Z,18.04
2023-05-14T20:58:13.563Z,17.94
2023-05-14T21:00:10.565Z,17.95
2023-05-14T21:02:06.221Z,17.98
2023-05-14T21:04:01.953Z,17.94
2023-05-14T21:06:00.731Z,17.89
2023-05-14T21:07:56.107Z,17.88
2023-05-14T21:09:52.738Z,17.77
2023-05-14T21:11:48.458Z,17.72
2023-05-14T21:13:43.932Z,17.74
2023-05-14T21:15:39.986Z,17.79
2023-05-14T21:17:35.444Z,17.81
2023-05-14T21:19:31.131Z,17.80
2023-05-14T21:21:30.331Z,17.83
2023-05-14T21:23:26.054Z,17.71
2023-05-14T21:25:21.038Z,17.69
2023-05-14T21:27:16.532Z,17.68
2023-05-14T21:29:11.577Z,17.66
2023-05-14T21:31:07.002Z,17.62
2023-05-14T21:33:02.053Z,17.63
2023-05-14T21:34:57.517Z,17.67
2023-05-14T21:36:55.399Z,17.69
2023-05-14T21:38:50.791Z,17.66
2023-05-14T21:40:45.884Z,17.65
2023-05-14T21:42:44.593Z,17.63
2023-05-14T21:45:03.808Z,17.60
2023-05-14T21:46:59.293Z,17.62
2023-05-14T21:48:54.584Z,17.60
2023-05-14T21:50:50.031Z,17.60
2023-05-14T21:52:47.748Z,17.59
2023-05-14T21:54:43.131Z,17.58
2023-05-14T21:56:38.740Z,17.55
2023-05-14T21:58:34.311Z,17.50
2023-05-14T22:00:29.413Z,17.45
2023-05-14T22:02:25.031Z,17.39
2023-05-14T22:04:20.186Z,17.32
2023-05-14T22:06:15.685Z,17.31
2023-05-14T22:08:13.640Z,17.29
2023-05-14T22:10:09.906Z,17.22
2023-05-14T22:12:05.127Z,17.21
2023-05-14T22:14:00.471Z,17.19
2023-05-14T22:16:05.229Z,17.14
2023-05-14T22:18:08.094Z,17.08
2023-05-14T22:20:03.536Z,17.03
2023-05-14T22:21:59.029Z,17.01
2023-05-14T22:23:57.020Z,16.95
2023-05-14T22:25:52.886Z,16.92
2023-05-14T22:27:48.286Z,16.91
2023-05-14T22:29:43.959Z,16.92
2023-05-14T22:31:39.532Z,16.91
2023-05-14T22:33:35.985Z,16.89
2023-05-14T22:35:31.453Z,16.88
2023-05-14T22:37:27.171Z,16.88
2023-05-14T22:39:25.178Z,16.88
2023-05-14T22:41:22.036Z,16.84
2023-05-14T22:43:17.400Z,16.87
2023-05-14T22:45:13.552Z,16.89
2023-05-14T22:47:09.098Z,16.88
2023-05-14T22:49:04.768Z,16.86
2023-05-14T22:51:00.202Z,16.84
2023-05-14T22:52:55.831Z,16.84
2023-05-14T22:54:53.873Z,16.83
2023-05-14T22:56:49.660Z,16.79
2023-05-14T22:58:44.994Z,16.78
2023-05-14T23:00:40.496Z,16.73
2023-05-14T23:02:35.980Z,16.70
2023-05-14T23:04:31.535Z,16.71
2023-05-14T23:06:28.143Z,16.69
2023-05-14T23:08:23.064Z,16.69
2023-05-14T23:10:21.292Z,16.67
2023-05-14T23:12:16.352Z,16.67
2023-05-14T23:14:15.413Z,16.69
2023-05-14T23:16:11.257Z,16.70
2023-05-14T23:18:06.917Z,16.67
2023-05-14T23:20:01.956Z,16.59
2023-05-14T23:21:58.356Z,16.53
2023-05-14T23:23:53.383Z,16.50
2023-05-14T23:25:51.662Z,16.44
2023-05-14T23:27:46.689Z,16.38
2023-05-14T23:29:42.075Z,16.32
2023-05-14T23:31:37.079Z,16.31
2023-05-14T23:33:30.049Z,16.29
2023-05-14T23:35:25.337Z,16.30
2023-05-14T23:37:21.144Z,16.34
2023-05-14T23:39:16.415Z,16.34
2023-05-14T23:41:14.430Z,16.33
2023-05-14T23:43:09.394Z,16.31
2023-05-14T23:45:05.382Z,16.29
2023-05-14T23:47:00.775Z,16.21
2023-05-14T23:48:57.208Z,16.11
2023-05-14T23:50:52.227Z,16.07
2023-05-14T23:52:47.603Z,16.07
2023-05-14T23:54:42.595Z,16.08
2023-05-14T23:56:40.634Z,16.08
2023-05-14T23:58:35.667Z,16.05
